createdAt,value
2022-12-31T00:01:18.395Z,93.81
2022-12-31T00:03:45.003Z,94.09
2022-12-31T00:06:30.935Z,95.51
2022-12-31T00:09:00.064Z,94.37
2022-12-31T00:11:28.504Z,95.35
2022-12-31T00:13:55.936Z,94.90
2022-12-31T00:16:25.813Z,93.58
2022-12-31T00:18:55.135Z,93.22
2022-12-31T00:21:22.637Z,94.13
2022-12-31T00:23:49.598Z,93.43
2022-12-31T00:26:18.910Z,93.96
2022-12-31T00:28:45.710Z,93.06
2022-12-31T00:31:13.745Z,93.69
2022-12-31T00:33:40.939Z,94.18
2022-12-31T00:36:10.396Z,93.51
2022-12-31T00:38:38.433Z,94.19
2022-12-31T00:41:05.990Z,93.29
2022-12-31T00:43:32.845Z,93.71
2022-12-31T00:46:00.030Z,93.82
2022-12-31T00:48:27.171Z,94.59
2022-12-31T00:50:55.654Z,93.56
2022-12-31T00:53:23.122Z,94.33
2022-12-31T00:55:50.211Z,93.54
2022-12-31T00:58:16.947Z,93.83
2022-12-31T01:00:43.631Z,93.42
2022-12-31T01:03:10.782Z,93.41
2022-12-31T01:05:38.471Z,93.38
2022-12-31T01:08:05.612Z,93.45
2022-12-31T01:10:50.496Z,93.78
2022-12-31T01:13:16.992Z,93.69
2022-12-31T01:15:43.525Z,93.55
2022-12-31T01:18:10.928Z,93.91
2022-12-31T01:20:39.254Z,94.13
2022-12-31T01:23:07.783Z,94.27
2022-12-31T01:25:39.136Z,94.70
2022-12-31T01:28:06.477Z,94.01
2022-12-31T01:30:33.001Z,95.07
2022-12-31T01:32:59.556Z,94.01
2022-12-31T01:35:26.040Z,94.77
2022-12-31T01:37:52.526Z,94.70
2022-12-31T01:40:19.203Z,94.24
2022-12-31T01:42:45.700Z,94.83
2022-12-31T01:45:14.170Z,94.23
2022-12-31T01:47:48.035Z,96.06
2022-12-31T01:50:33.814Z,97.86
2022-12-31T01:53:03.756Z,95.53
2022-12-31T01:55:35.104Z,94.97
2022-12-31T01:58:08.460Z,95.84
2022-12-31T02:00:35.432Z,94.24
2022-12-31T02:03:03.544Z,94.31
2022-12-31T02:05:41.214Z,95.80
2022-12-31T02:08:08.504Z,94.62
2022-12-31T02:10:35.674Z,94.61
2022-12-31T02:13:02.640Z,94.12
2022-12-31T02:16:06.747Z,97.96
2022-12-31T02:18:43.647Z,97.13
2022-12-31T02:21:43.998Z,96.65
2022-12-31T02:24:38.350Z,94.50
2022-12-31T02:27:18.419Z,96.94
2022-12-31T02:29:47.893Z,96.24
2022-12-31T02:32:24.184Z,97.43
2022-12-31T02:35:00.876Z,96.63
2022-12-31T02:37:30.533Z,95.01
2022-12-31T02:39:58.439Z,95.06
2022-12-31T02:42:24.924Z,94.98
2022-12-31T02:44:51.403Z,94.93
2022-12-31T02:47:43.105Z,97.56
2022-12-31T02:50:38.711Z,98.18
2022-12-31T02:53:14.522Z,95.10
2022-12-31T02:56:08.599Z,98.66
2022-12-31T02:59:03.225Z,97.89
2022-12-31T03:01:54.255Z,96.72
2022-12-31T03:04:32.027Z,96.23
2022-12-31T03:07:23.438Z,96.13
2022-12-31T03:09:50.571Z,94.95
2022-12-31T03:12:37.621Z,95.99
2022-12-31T03:15:06.736Z,95.49
2022-12-31T03:17:34.058Z,96.28
2022-12-31T03:20:19.487Z,96.04
2022-12-31T03:22:46.113Z,95.71
2022-12-31T03:25:34.217Z,96.46
2022-12-31T03:28:02.963Z,95.90
2022-12-31T03:30:30.932Z,95.97
2022-12-31T03:32:58.054Z,96.38
2022-12-31T03:35:26.233Z,95.42
2022-12-31T03:37:53.630Z,96.50
2022-12-31T03:40:22.027Z,95.62
2022-12-31T03:42:48.510Z,96.08
2022-12-31T03:45:15.625Z,95.90
2022-12-31T03:47:42.423Z,97.21
2022-12-31T03:50:11.332Z,95.82
2022-12-31T03:52:38.329Z,95.39
2022-12-31T03:55:05.398Z,96.62
2022-12-31T03:57:31.952Z,95.80
2022-12-31T03:59:58.539Z,96.43
2022-12-31T04:02:28.956Z,97.18
2022-12-31T04:04:56.084Z,96.52
2022-12-31T04:07:22.706Z,95.88
2022-12-31T04:09:49.350Z,96.62
2022-12-31T04:12:15.871Z,96.70
2022-12-31T04:14:42.442Z,96.75
2022-12-31T04:17:08.995Z,96.79
2022-12-31T04:19:35.563Z,97.94
2022-12-31T04:22:02.034Z,97.74
2022-12-31T04:24:28.646Z,97.82
2022-12-31T04:26:55.173Z,97.57
2022-12-31T04:29:21.804Z,99.88
2022-12-31T04:31:48.322Z,98.41
2022-12-31T04:34:15.025Z,99.18
2022-12-31T04:36:41.524Z,97.88
2022-12-31T04:39:08.639Z,97.70
2022-12-31T04:41:35.194Z,98.56
2022-12-31T04:44:01.720Z,97.31
2022-12-31T04:46:31.244Z,98.37
2022-12-31T04:48:58.697Z,97.47
2022-12-31T04:51:26.551Z,97.07
2022-12-31T04:53:53.448Z,96.90
2022-12-31T04:56:20.335Z,96.42
2022-12-31T04:58:47.196Z,95.13
2022-12-31T05:01:14.822Z,96.63
2022-12-31T05:03:41.642Z,94.61
2022-12-31T05:06:15.657Z,93.13
2022-12-31T05:08:42.979Z,93.59
2022-12-31T05:11:10.180Z,93.54
2022-12-31T05:13:37.097Z,93.70
2022-12-31T05:16:04.395Z,93.87
2022-12-31T05:18:32.269Z,93.07
2022-12-31T05:20:58.870Z,92.59
2022-12-31T05:23:25.576Z,91.23
2022-12-31T05:25:52.477Z,90.89
2022-12-31T05:28:19.651Z,90.21
2022-12-31T05:30:50.092Z,92.07
2022-12-31T05:33:17.492Z,91.55
2022-12-31T05:35:44.151Z,92.33
2022-12-31T05:38:10.983Z,92.05
2022-12-31T05:40:37.445Z,92.33
2022-12-31T05:43:03.910Z,91.35
2022-12-31T05:45:31.138Z,91.16
2022-12-31T05:47:58.445Z,92.59
2022-12-31T05:50:25.359Z,90.08
2022-12-31T05:52:51.885Z,88.59
2022-12-31T05:55:18.553Z,90.11
2022-12-31T05:57:45.024Z,89.39
2022-12-31T06:00:12.081Z,91.23
2022-12-31T06:02:38.604Z,88.50
2022-12-31T06:05:05.604Z,91.39
2022-12-31T06:07:32.240Z,89.25
2022-12-31T06:09:58.846Z,90.87
2022-12-31T06:12:25.479Z,89.61
2022-12-31T06:14:51.979Z,90.63
2022-12-31T06:17:20.664Z,91.60
2022-12-31T06:19:47.171Z,90.11
2022-12-31T06:22:14.043Z,89.23
2022-12-31T06:24:40.566Z,90.92
2022-12-31T06:27:07.104Z,91.31
2022-12-31T06:29:33.659Z,89.54
2022-12-31T06:32:00.168Z,89.27
2022-12-31T06:34:26.774Z,88.54
2022-12-31T06:36:53.344Z,88.67
2022-12-31T06:39:19.899Z,86.79
2022-12-31T06:41:46.456Z,88.69
2022-12-31T06:44:14.527Z,88.02
2022-12-31T06:46:41.065Z,90.12
2022-12-31T06:49:07.574Z,90.28
2022-12-31T06:51:34.056Z,89.21
2022-12-31T06:54:00.557Z,89.96
2022-12-31T06:56:34.064Z,89.62
2022-12-31T06:59:02.472Z,89.40
2022-12-31T07:01:34.928Z,89.97
2022-12-31T07:04:04.265Z,90.75
2022-12-31T07:06:58.939Z,89.64
2022-12-31T07:09:34.773Z,91.25
2022-12-31T07:12:13.930Z,92.13
2022-12-31T07:14:43.596Z,89.55
2022-12-31T07:17:28.424Z,89.86
2022-12-31T07:20:05.334Z,90.17
2022-12-31T07:22:32.152Z,89.33
2022-12-31T07:24:59.191Z,90.22
2022-12-31T07:27:50.342Z,90.69
2022-12-31T07:30:22.341Z,90.10
2022-12-31T07:33:06.878Z,91.42
2022-12-31T07:36:05.611Z,91.31
2022-12-31T07:38:48.629Z,90.67
2022-12-31T07:41:54.937Z,91.62
2022-12-31T07:44:48.831Z,88.00
2022-12-31T07:47:24.207Z,88.48
2022-12-31T07:49:51.536Z,89.07
2022-12-31T07:52:18.870Z,89.10
2022-12-31T07:54:45.868Z,89.48
2022-12-31T07:57:14.226Z,89.22
2022-12-31T08:00:09.288Z,88.91
2022-12-31T08:03:01.893Z,87.75
2022-12-31T08:05:38.813Z,86.21
2022-12-31T08:08:12.320Z,88.86
2022-12-31T08:10:53.306Z,89.76
2022-12-31T08:13:20.963Z,88.39
2022-12-31T08:15:48.332Z,87.24
2022-12-31T08:18:15.110Z,87.92
2022-12-31T08:21:09.416Z,86.71
2022-12-31T08:24:09.454Z,87.03
2022-12-31T08:26:53.179Z,88.32
2022-12-31T08:29:53.791Z,88.37
2022-12-31T08:32:29.922Z,86.45
2022-12-31T08:35:28.384Z,89.55
2022-12-31T08:38:17.391Z,88.73
2022-12-31T08:41:29.463Z,91.91
2022-12-31T08:44:07.808Z,88.38
2022-12-31T08:46:44.902Z,88.95
2022-12-31T08:49:11.895Z,88.28
2022-12-31T08:51:38.680Z,86.36
2022-12-31T08:54:05.534Z,89.02
2022-12-31T08:56:36.338Z,89.73
2022-12-31T08:59:15.134Z,87.61
2022-12-31T09:01:53.792Z,91.76
2022-12-31T09:04:33.795Z,91.01
2022-12-31T09:07:03.258Z,89.72
2022-12-31T09:10:04.252Z,88.97
2022-12-31T09:12:45.396Z,86.93
2022-12-31T09:15:24.215Z,89.28
2022-12-31T09:17:51.185Z,89.19
2022-12-31T09:20:36.332Z,90.15
2022-12-31T09:23:08.930Z,89.46
2022-12-31T09:25:57.520Z,90.04
2022-12-31T09:28:30.142Z,88.66
2022-12-31T09:31:02.513Z,91.21
2022-12-31T09:33:59.993Z,92.15
2022-12-31T09:36:50.027Z,91.66
2022-12-31T09:39:40.433Z,90.33
2022-12-31T09:42:37.905Z,89.03
2022-12-31T09:45:24.778Z,90.80
2022-12-31T09:48:06.575Z,91.25
2022-12-31T09:51:12.688Z,91.04
2022-12-31T09:53:47.460Z,89.34
2022-12-31T09:56:30.846Z,92.52
2022-12-31T09:59:05.514Z,91.04
2022-12-31T10:01:46.449Z,91.09
2022-12-31T10:04:34.908Z,91.67
2022-12-31T10:07:28.857Z,92.50
2022-12-31T10:10:04.997Z,92.10
2022-12-31T10:13:10.751Z,93.41
2022-12-31T10:16:04.378Z,92.84
2022-12-31T10:18:46.011Z,93.15
2022-12-31T10:21:37.218Z,93.80
2022-12-31T10:24:22.420Z,95.24
2022-12-31T10:26:58.490Z,93.34
2022-12-31T10:29:39.567Z,94.68
2022-12-31T10:32:16.150Z,93.01
2022-12-31T10:34:45.504Z,92.47
2022-12-31T10:37:18.358Z,96.40
2022-12-31T10:40:52.605Z,97.93
2022-12-31T10:43:28.007Z,96.15
2022-12-31T10:46:16.381Z,97.21
2022-12-31T10:49:02.650Z,97.09
2022-12-31T10:52:01.237Z,99.65
2022-12-31T10:55:06.527Z,99.93
2022-12-31T10:57:47.996Z,97.38
2022-12-31T11:00:22.127Z,97.93
2022-12-31T11:03:13.405Z,98.86
2022-12-31T11:06:07.687Z,97.58
2022-12-31T11:09:02.252Z,99.50
2022-12-31T11:11:44.721Z,97.99
2022-12-31T11:14:48.973Z,99.73
2022-12-31T11:17:33.916Z,100.00
2022-12-31T11:20:12.522Z,96.94
2022-12-31T11:22:55.438Z,99.07
2022-12-31T11:25:48.201Z,98.98
2022-12-31T11:28:44.170Z,96.51
2022-12-31T11:31:58.115Z,98.08
2022-12-31T11:34:51.954Z,98.76
2022-12-31T11:37:47.634Z,98.45
2022-12-31T11:40:38.988Z,98.51
2022-12-31T11:43:36.154Z,99.12
2022-12-31T11:46:41.342Z,99.35
2022-12-31T11:49:10.952Z,98.27
2022-12-31T11:51:50.018Z,96.75
2022-12-31T11:54:42.365Z,96.83
2022-12-31T11:57:16.971Z,99.13
2022-12-31T11:59:43.672Z,98.51
2022-12-31T12:02:30.054Z,100.00
2022-12-31T12:05:05.024Z,99.30
2022-12-31T12:07:36.802Z,97.48
2022-12-31T12:10:14.841Z,98.59
2022-12-31T12:12:42.805Z,98.82
2022-12-31T12:15:11.324Z,97.62
2022-12-31T12:17:39.235Z,100.00
2022-12-31T12:20:19.667Z,100.00
2022-12-31T12:22:51.464Z,100.00
2022-12-31T12:25:21.296Z,100.00
2022-12-31T12:27:48.400Z,100.00
2022-12-31T12:30:21.667Z,100.00
2022-12-31T12:32:57.396Z,100.00
2022-12-31T12:35:26.804Z,100.00
2022-12-31T12:38:15.949Z,100.00
2022-12-31T12:40:59.342Z,100.00
2022-12-31T12:43:31.791Z,100.00
2022-12-31T12:46:26.133Z,100.00
2022-12-31T12:48:58.145Z,100.00
2022-12-31T12:51:24.608Z,100.00
2022-12-31T12:54:11.320Z,100.00
2022-12-31T12:57:00.569Z,100.00
2022-12-31T13:00:07.537Z,100.00
2022-12-31T13:02:54.969Z,100.00
2022-12-31T13:05:31.892Z,100.00
2022-12-31T13:08:10.554Z,100.00
2022-12-31T13:11:01.304Z,100.00
2022-12-31T13:13:49.587Z,100.00
2022-12-31T13:16:37.998Z,100.00
2022-12-31T13:19:29.518Z,100.00
2022-12-31T13:22:29.760Z,100.00
2022-12-31T13:25:08.081Z,100.00
2022-12-31T13:27:37.684Z,100.00
2022-12-31T13:30:14.734Z,100.00
2022-12-31T13:32:46.094Z,100.00
2022-12-31T13:35:24.514Z,100.00
2022-12-31T13:38:04.811Z,100.00
2022-12-31T13:40:48.240Z,100.00
2022-12-31T13:43:35.211Z,100.00
2022-12-31T13:46:22.403Z,100.00
2022-12-31T13:48:54.507Z,100.00
2022-12-31T13:51:34.134Z,100.00
2022-12-31T13:54:17.901Z,100.00
2022-12-31T13:56:46.020Z,100.00
2022-12-31T13:59:20.515Z,100.00
2022-12-31T14:01:58.861Z,100.00
2022-12-31T14:04:43.383Z,100.00
2022-12-31T14:07:26.706Z,100.00
2022-12-31T14:09:58.435Z,100.00
2022-12-31T14:12:30.511Z,100.00
2022-12-31T14:15:03.009Z,100.00
2022-12-31T14:17:44.115Z,100.00
2022-12-31T14:20:39.829Z,100.00
2022-12-31T14:23:24.535Z,100.00
2022-12-31T14:26:05.932Z,100.00
2022-12-31T14:28:47.101Z,100.00
2022-12-31T14:31:30.000Z,100.00
2022-12-31T14:33:59.230Z,100.00
2022-12-31T14:36:34.328Z,100.00
2022-12-31T14:39:10.447Z,100.00
2022-12-31T14:41:51.071Z,100.00
2022-12-31T14:44:58.920Z,100.00
2022-12-31T14:47:56.610Z,100.00
2022-12-31T14:50:26.288Z,100.00
2022-12-31T14:53:07.894Z,100.00
2022-12-31T14:55:35.870Z,100.00
2022-12-31T14:58:28.669Z,100.00
2022-12-31T15:01:09.033Z,100.00
2022-12-31T15:03:44.967Z,100.00
2022-12-31T15:06:35.161Z,100.00
2022-12-31T15:09:23.204Z,100.00
2022-12-31T15:12:21.532Z,100.00
2022-12-31T15:14:57.794Z,100.00
2022-12-31T15:17:33.395Z,100.00
2022-12-31T15:20:24.539Z,100.00
2022-12-31T15:22:53.385Z,100.00
2022-12-31T15:25:19.827Z,100.00
2022-12-31T15:27:47.439Z,100.00
2022-12-31T15:30:37.626Z,100.00
2022-12-31T15:33:16.849Z,100.00
2022-12-31T15:35:47.384Z,100.00
2022-12-31T15:38:13.863Z,100.00
2022-12-31T15:40:49.448Z,100.00
2022-12-31T15:43:24.997Z,100.00
2022-12-31T15:45:54.215Z,100.00
2022-12-31T15:48:30.898Z,100.00
2022-12-31T15:51:00.257Z,100.00
2022-12-31T15:53:32.208Z,100.00
2022-12-31T15:56:00.507Z,100.00
2022-12-31T15:58:31.782Z,100.00
2022-12-31T16:01:15.580Z,100.00
2022-12-31T16:03:54.427Z,100.00
2022-12-31T16:06:21.317Z,100.00
2022-12-31T16:08:49.597Z,100.00
2022-12-31T16:11:17.345Z,100.00
2022-12-31T16:13:50.687Z,100.00
2022-12-31T16:16:31.954Z,100.00
2022-12-31T16:18:59.065Z,100.00
2022-12-31T16:21:37.624Z,100.00
2022-12-31T16:24:07.127Z,100.00
2022-12-31T16:26:49.642Z,100.00
2022-12-31T16:29:19.123Z,100.00
2022-12-31T16:31:47.338Z,100.00
2022-12-31T16:34:17.699Z,100.00
2022-12-31T16:37:02.304Z,100.00
2022-12-31T16:39:39.502Z,100.00
2022-12-31T16:42:20.869Z,100.00
2022-12-31T16:44:48.805Z,100.00
2022-12-31T16:47:20.294Z,100.00
2022-12-31T16:49:52.523Z,100.00
2022-12-31T16:52:30.687Z,100.00
2022-12-31T16:54:57.655Z,100.00
2022-12-31T16:57:29.110Z,100.00
2022-12-31T17:00:03.107Z,100.00
2022-12-31T17:02:44.233Z,100.00
2022-12-31T17:05:25.898Z,100.00
2022-12-31T17:07:53.022Z,100.00
2022-12-31T17:10:36.503Z,100.00
2022-12-31T17:13:27.588Z,100.00
2022-12-31T17:15:56.885Z,100.00
2022-12-31T17:18:27.208Z,100.00
2022-12-31T17:20:55.161Z,100.00
2022-12-31T17:23:34.145Z,100.00
2022-12-31T17:26:07.856Z,100.00
2022-12-31T17:28:45.625Z,100.00
2022-12-31T17:31:36.558Z,100.00
2022-12-31T17:34:12.217Z,100.00
2022-12-31T17:36:40.686Z,100.00
2022-12-31T17:39:22.916Z,100.00
2022-12-31T17:41:56.151Z,100.00
2022-12-31T17:44:28.094Z,100.00
2022-12-31T17:46:54.765Z,100.00
2022-12-31T17:49:27.222Z,100.00
2022-12-31T17:51:53.915Z,100.00
2022-12-31T17:54:20.489Z,100.00
2022-12-31T17:56:47.320Z,100.00
2022-12-31T17:59:23.247Z,100.00
2022-12-31T18:01:50.166Z,100.00
2022-12-31T18:04:19.072Z,100.00
2022-12-31T18:06:45.590Z,100.00
2022-12-31T18:09:12.307Z,100.00
2022-12-31T18:11:40.358Z,100.00
2022-12-31T18:14:07.370Z,100.00
2022-12-31T18:16:34.017Z,100.00
2022-12-31T18:19:01.220Z,100.00
2022-12-31T18:21:30.720Z,100.00
2022-12-31T18:26:24.118Z,100.00
2022-12-31T18:28:51.352Z,100.00
2022-12-31T18:31:27.092Z,100.00
2022-12-31T18:33:55.819Z,100.00
2022-12-31T18:36:24.104Z,100.00
2022-12-31T18:38:50.914Z,100.00
2022-12-31T18:41:28.949Z,100.00
2022-12-31T18:43:56.086Z,100.00
2022-12-31T18:46:24.185Z,100.00
2022-12-31T18:48:50.801Z,100.00
2022-12-31T18:51:26.488Z,100.00
2022-12-31T18:53:57.981Z,100.00
2022-12-31T18:56:25.243Z,100.00
2022-12-31T18:58:52.266Z,100.00
2022-12-31T19:01:37.838Z,100.00
2022-12-31T19:04:11.117Z,100.00
2022-12-31T19:06:37.633Z,100.00
2022-12-31T19:09:13.236Z,100.00
2022-12-31T19:11:50.899Z,100.00
2022-12-31T19:14:21.590Z,100.00
2022-12-31T19:16:48.922Z,100.00
2022-12-31T19:19:15.476Z,100.00
2022-12-31T19:21:42.828Z,100.00
2022-12-31T19:24:19.023Z,100.00
2022-12-31T19:26:45.535Z,100.00
2022-12-31T19:29:23.393Z,100.00
2022-12-31T19:31:50.461Z,100.00
2022-12-31T19:34:17.066Z,100.00
2022-12-31T19:36:44.419Z,100.00
2022-12-31T19:39:17.389Z,100.00
2022-12-31T19:41:44.724Z,100.00
2022-12-31T19:44:19.434Z,100.00
2022-12-31T19:46:46.914Z,100.00
2022-12-31T19:49:14.662Z,100.00
2022-12-31T19:51:42.248Z,100.00
2022-12-31T19:54:10.562Z,100.00
2022-12-31T19:56:37.581Z,100.00
2022-12-31T19:59:09.430Z,100.00
2022-12-31T20:01:36.222Z,100.00
2022-12-31T20:04:02.820Z,100.00
2022-12-31T20:06:29.288Z,100.00
2022-12-31T20:08:55.804Z,100.00
2022-12-31T20:11:24.114Z,100.00
2022-12-31T20:13:53.520Z,100.00
2022-12-31T20:16:23.279Z,100.00
2022-12-31T20:18:50.579Z,100.00
2022-12-31T20:21:20.593Z,100.00
2022-12-31T20:23:48.517Z,100.00
2022-12-31T20:26:15.492Z,100.00
2022-12-31T20:28:42.043Z,100.00
2022-12-31T20:31:15.268Z,100.00
2022-12-31T20:33:42.122Z,100.00
2022-12-31T20:36:10.716Z,100.00
2022-12-31T20:38:37.360Z,100.00
2022-12-31T20:41:04.997Z,100.00
2022-12-31T20:43:32.604Z,100.00
2022-12-31T20:45:59.792Z,100.00
2022-12-31T20:48:26.349Z,100.00
2022-12-31T20:50:58.947Z,100.00
2022-12-31T20:53:25.553Z,100.00
2022-12-31T20:55:52.120Z,100.00
2022-12-31T20:58:18.750Z,100.00
2022-12-31T21:00:49.560Z,100.00
2022-12-31T21:03:53.827Z,100.00
2022-12-31T21:06:05.170Z,100.00
2022-12-31T21:08:34.983Z,100.00
2022-12-31T21:11:02.499Z,100.00
2022-12-31T21:13:29.272Z,100.00
2022-12-31T21:15:56.023Z,100.00
2022-12-31T21:18:23.271Z,100.00
2022-12-31T21:20:51.629Z,100.00
2022-12-31T21:23:20.014Z,100.00
2022-12-31T21:25:50.404Z,100.00
2022-12-31T21:28:17.031Z,100.00
2022-12-31T21:30:43.595Z,100.00
2022-12-31T21:33:10.167Z,100.00
2022-12-31T21:35:48.618Z,100.00
2022-12-31T21:38:19.924Z,100.00
2022-12-31T21:40:46.811Z,100.00
2022-12-31T21:43:16.556Z,100.00
2022-12-31T21:45:43.695Z,100.00
2022-12-31T21:48:21.276Z,100.00
2022-12-31T21:50:49.939Z,100.00
2022-12-31T21:53:23.663Z,100.00
2022-12-31T21:56:11.390Z,100.00
2022-12-31T21:59:23.015Z,100.00
2022-12-31T22:02:07.908Z,100.00
2022-12-31T22:07:20.911Z,100.00
2022-12-31T22:09:47.410Z,100.00
2022-12-31T22:12:13.953Z,100.00
2022-12-31T22:15:15.102Z,100.00
2022-12-31T22:17:27.490Z,100.00
2022-12-31T22:20:25.207Z,100.00
2022-12-31T22:22:40.353Z,100.00
2022-12-31T22:25:07.171Z,100.00
2022-12-31T22:27:33.646Z,100.00
2022-12-31T22:30:00.226Z,100.00
2022-12-31T22:32:26.742Z,100.00
2022-12-31T22:34:53.258Z,100.00
2022-12-31T22:37:55.142Z,100.00
2022-12-31T22:40:06.541Z,98.35
2022-12-31T22:42:33.022Z,98.23
2022-12-31T22:44:59.499Z,98.65
2022-12-31T22:47:26.082Z,100.00
2022-12-31T22:49:52.591Z,100.00
2022-12-31T22:52:19.104Z,100.00
2022-12-31T22:54:45.570Z,97.84
2022-12-31T22:57:17.801Z,98.68
2022-12-31T22:59:46.558Z,97.91
2022-12-31T23:02:13.089Z,98.81
2022-12-31T23:04:39.971Z,99.61
2022-12-31T23:07:07.532Z,97.96
2022-12-31T23:09:52.624Z,97.60
2022-12-31T23:12:19.171Z,99.07
2022-12-31T23:15:04.358Z,97.88
2022-12-31T23:17:49.211Z,99.27
2022-12-31T23:20:38.161Z,97.67
2022-12-31T23:23:09.794Z,97.91
2022-12-31T23:25:43.207Z,98.81
2022-12-31T23:28:13.638Z,100.00
2022-12-31T23:30:40.885Z,99.08
2022-12-31T23:33:08.776Z,98.23
2022-12-31T23:35:35.384Z,99.98
2022-12-31T23:38:01.864Z,100.00
2022-12-31T23:40:34.461Z,97.85
2022-12-31T23:43:05.434Z,100.00
2022-12-31T23:45:33.639Z,99.21
2022-12-31T23:48:00.369Z,100.00
2022-12-31T23:50:27.261Z,97.83
2022-12-31T23:52:54.121Z,97.91
2022-12-31T23:55:20.970Z,98.21
2022-12-31T23:57:47.461Z,98.35
